createdAt,value
2019-04-07T00:02:25.640Z,12.90
2019-04-07T00:04:52.270Z,12.90
2019-04-07T00:07:18.558Z,12.90
2019-04-07T00:09:44.750Z,12.90
2019-04-07T00:12:11.164Z,12.90
2019-04-07T00:14:37.860Z,12.90
2019-04-07T00:17:04.157Z,12.90
2019-04-07T00:19:30.669Z,12.90
2019-04-07T00:21:56.902Z,12.90
2019-04-07T00:24:23.039Z,12.80
2019-04-07T00:26:49.142Z,12.80
2019-04-07T00:29:15.569Z,12.80
2019-04-07T00:32:02.512Z,12.80
2019-04-07T00:34:28.889Z,12.80
2019-04-07T00:36:55.714Z,12.80
2019-04-07T00:39:22.457Z,12.80
2019-04-07T00:41:48.672Z,12.80
2019-04-07T00:44:14.788Z,12.80
2019-04-07T00:46:40.882Z,12.80
2019-04-07T00:49:06.986Z,12.80
2019-04-07T00:51:33.283Z,12.80
2019-04-07T00:53:59.755Z,12.80
2019-04-07T00:56:25.924Z,12.80
2019-04-07T00:58:52.417Z,12.80
2019-04-07T01:01:19.895Z,12.80
2019-04-07T01:03:46.244Z,12.80
2019-04-07T01:06:12.809Z,12.80
2019-04-07T01:08:39.158Z,12.80
2019-04-07T01:11:05.652Z,12.70
2019-04-07T01:13:32.574Z,12.80
2019-04-07T01:15:59.165Z,12.70
2019-04-07T01:18:29.102Z,12.80
2019-04-07T01:20:55.299Z,12.80
2019-04-07T01:23:21.504Z,12.80
2019-04-07T01:25:47.630Z,12.80
2019-04-07T01:28:14.197Z,12.70
2019-04-07T01:30:41.485Z,12.80
2019-04-07T01:33:07.671Z,12.80
2019-04-07T01:35:44.447Z,12.80
2019-04-07T01:38:02.457Z,12.80
2019-04-07T01:40:28.870Z,12.80
2019-04-07T01:43:06.468Z,12.80
2019-04-07T01:45:35.728Z,12.80
2019-04-07T01:48:03.881Z,12.80
2019-04-07T01:50:32.630Z,12.80
2019-04-07T01:53:01.148Z,12.80
2019-04-07T01:55:31.936Z,12.70
2019-04-07T01:58:18.521Z,12.80
2019-04-07T02:04:00.251Z,12.80
2019-04-07T02:06:28.281Z,12.70
2019-04-07T02:08:59.176Z,12.80
2019-04-07T02:11:29.960Z,12.80
2019-04-07T02:14:14.715Z,12.80
2019-04-07T02:16:51.785Z,12.80
2019-04-07T02:19:22.481Z,12.80
2019-04-07T02:21:56.219Z,12.80
2019-04-07T02:24:39.883Z,12.80
2019-04-07T02:27:14.360Z,12.80
2019-04-07T02:29:51.324Z,12.80
2019-04-07T02:32:25.794Z,12.80
2019-04-07T02:34:53.894Z,12.90
2019-04-07T02:37:22.691Z,12.90
2019-04-07T02:39:50.826Z,12.90
2019-04-07T02:42:21.611Z,12.90
2019-04-07T02:44:55.545Z,12.90
2019-04-07T02:47:35.598Z,12.90
2019-04-07T02:50:21.993Z,12.90
2019-04-07T02:52:52.969Z,12.90
2019-04-07T02:55:30.278Z,12.90
2019-04-07T02:58:01.522Z,12.90
2019-04-07T03:00:36.476Z,12.90
2019-04-07T03:03:10.906Z,13.00
2019-04-07T03:05:39.140Z,13.00
2019-04-07T03:08:13.398Z,13.00
2019-04-07T03:10:41.496Z,12.90
2019-04-07T03:13:21.779Z,12.90
2019-04-07T03:15:49.860Z,13.00
2019-04-07T03:18:17.887Z,12.90
2019-04-07T03:20:59.186Z,12.90
2019-04-07T03:23:33.487Z,12.90
2019-04-07T03:26:21.351Z,12.90
2019-04-07T03:28:52.612Z,12.80
2019-04-07T03:31:33.194Z,12.90
2019-04-07T03:34:12.364Z,12.80
2019-04-07T03:37:16.913Z,12.80
2019-04-07T03:39:22.277Z,12.80
2019-04-07T03:42:08.478Z,12.70
2019-04-07T03:45:04.344Z,12.70
2019-04-07T03:47:35.531Z,12.70
2019-04-07T03:50:08.962Z,12.60
2019-04-07T03:52:40.479Z,12.60
2019-04-07T03:55:09.117Z,12.60
2019-04-07T03:57:43.320Z,12.60
2019-04-07T04:00:31.799Z,12.50
2019-04-07T04:03:00.373Z,12.50
2019-04-07T04:05:37.427Z,12.50
2019-04-07T04:08:14.288Z,12.40
2019-04-07T04:10:54.331Z,12.40
2019-04-07T04:13:23.099Z,12.30
2019-04-07T04:15:54.138Z,12.30
2019-04-07T04:18:20.631Z,12.20
2019-04-07T04:20:46.826Z,12.20
2019-04-07T04:23:12.951Z,12.20
2019-04-07T04:25:39.168Z,12.10
2019-04-07T04:28:05.296Z,12.10
2019-04-07T04:30:32.011Z,12.00
2019-04-07T04:32:58.323Z,12.00
2019-04-07T04:35:24.624Z,12.00
2019-04-07T04:37:53.426Z,11.90
2019-04-07T04:40:20.507Z,11.90
2019-04-07T04:42:46.967Z,11.90
2019-04-07T04:45:13.824Z,11.90
2019-04-07T04:47:40.706Z,11.90
2019-04-07T04:50:08.062Z,11.80
2019-04-07T04:52:34.812Z,11.80
2019-04-07T04:55:01.980Z,11.80
2019-04-07T04:57:28.413Z,11.80
2019-04-07T04:59:54.556Z,11.70
2019-04-07T05:02:20.771Z,11.70
2019-04-07T05:04:47.126Z,11.70
2019-04-07T05:07:13.445Z,11.60
2019-04-07T05:09:46.128Z,11.60
2019-04-07T05:12:08.335Z,11.60
2019-04-07T05:14:34.660Z,11.60
2019-04-07T05:17:02.866Z,11.60
2019-04-07T05:19:28.984Z,11.60
2019-04-07T05:21:55.155Z,11.60
2019-04-07T05:24:21.323Z,11.60
2019-04-07T05:26:47.755Z,11.60
2019-04-07T05:29:14.628Z,11.60
2019-04-07T05:31:41.327Z,11.70
2019-04-07T05:34:07.549Z,11.70
2019-04-07T05:36:33.668Z,11.70
2019-04-07T05:38:59.989Z,11.70
2019-04-07T05:41:26.220Z,11.80
2019-04-07T05:43:52.519Z,11.80
2019-04-07T05:46:19.304Z,11.80
2019-04-07T05:48:47.526Z,11.80
2019-04-07T05:51:13.579Z,11.90
2019-04-07T05:53:39.979Z,11.90
2019-04-07T05:56:06.333Z,11.90
2019-04-07T05:58:32.521Z,11.90
2019-04-07T06:00:58.811Z,11.90
2019-04-07T06:03:25.392Z,12.00
2019-04-07T06:05:51.863Z,12.00
2019-04-07T06:08:24.622Z,12.10
2019-04-07T06:10:46.276Z,12.10
2019-04-07T06:13:14.487Z,12.10
2019-04-07T06:15:40.464Z,12.20
2019-04-07T06:18:06.694Z,12.20
2019-04-07T06:20:33.356Z,12.30
2019-04-07T06:22:59.728Z,12.30
2019-04-07T06:25:27.339Z,12.30
2019-04-07T06:27:54.297Z,12.40
2019-04-07T06:30:22.040Z,12.50
2019-04-07T06:32:48.608Z,12.50
2019-04-07T06:35:14.727Z,12.60
2019-04-07T06:37:40.841Z,12.60
2019-04-07T06:40:07.375Z,12.70
2019-04-07T06:42:34.315Z,12.70
2019-04-07T06:45:01.560Z,12.80
2019-04-07T06:47:31.266Z,12.80
2019-04-07T06:50:05.854Z,12.90
2019-04-07T06:52:38.771Z,13.00
2019-04-07T06:55:26.532Z,13.00
2019-04-07T06:58:07.534Z,13.10
2019-04-07T07:00:37.630Z,13.20
2019-04-07T07:03:06.168Z,13.20
2019-04-07T07:05:50.371Z,13.30
2019-04-07T07:08:24.691Z,13.30
2019-04-07T07:11:10.529Z,13.40
2019-04-07T07:13:45.160Z,13.40
2019-04-07T07:16:22.837Z,13.50
2019-04-07T07:19:04.230Z,13.60
2019-04-07T07:21:41.339Z,13.60
2019-04-07T07:24:08.060Z,13.70
2019-04-07T07:26:35.399Z,13.80
2019-04-07T07:29:02.054Z,13.80
2019-04-07T07:31:28.351Z,13.90
2019-04-07T07:33:54.977Z,14.00
2019-04-07T07:36:22.687Z,14.10
2019-04-07T07:38:56.860Z,14.10
2019-04-07T07:41:19.736Z,14.10
2019-04-07T07:43:46.008Z,14.10
2019-04-07T07:46:13.059Z,14.20
2019-04-07T07:48:40.079Z,14.30
2019-04-07T07:51:08.118Z,14.40
2019-04-07T07:53:34.420Z,14.50
2019-04-07T07:56:00.988Z,14.50
2019-04-07T07:58:30.842Z,14.60
2019-04-07T08:00:55.537Z,14.60
2019-04-07T08:03:22.917Z,14.70
2019-04-07T08:05:49.191Z,14.70
2019-04-07T08:08:16.366Z,14.80
2019-04-07T08:10:42.976Z,14.90
2019-04-07T08:13:09.191Z,14.90
2019-04-07T08:15:36.050Z,15.00
2019-04-07T08:18:04.854Z,15.00
2019-04-07T08:20:30.645Z,15.10
2019-04-07T08:22:56.920Z,15.10
2019-04-07T08:25:24.760Z,15.20
2019-04-07T08:27:51.070Z,15.30
2019-04-07T08:30:17.475Z,15.40
2019-04-07T08:32:44.207Z,15.60
2019-04-07T08:35:10.793Z,15.70
2019-04-07T08:37:36.898Z,15.80
2019-04-07T08:40:07.287Z,16.00
2019-04-07T08:42:33.158Z,16.10
2019-04-07T08:45:00.445Z,16.20
2019-04-07T08:47:26.787Z,16.40
2019-04-07T08:49:55.382Z,16.50
2019-04-07T08:52:21.088Z,16.70
2019-04-07T08:54:50.358Z,16.90
2019-04-07T08:57:15.343Z,17.00
2019-04-07T08:59:43.039Z,17.20
2019-04-07T09:02:09.478Z,17.30
2019-04-07T09:04:35.570Z,17.50
2019-04-07T09:07:03.236Z,17.60
2019-04-07T09:09:34.088Z,17.80
2019-04-07T09:11:57.785Z,17.90
2019-04-07T09:14:24.699Z,18.00
2019-04-07T09:17:02.270Z,18.20
2019-04-07T09:19:46.874Z,18.30
2019-04-07T09:22:15.500Z,18.50
2019-04-07T09:24:44.015Z,18.50
2019-04-07T09:27:17.286Z,18.60
2019-04-07T09:29:45.380Z,18.70
2019-04-07T09:32:30.662Z,18.80
2019-04-07T09:35:15.574Z,18.80
2019-04-07T09:38:02.073Z,19.00
2019-04-07T09:40:30.340Z,19.10
2019-04-07T09:43:00.985Z,19.20
2019-04-07T09:45:45.864Z,19.30
2019-04-07T09:48:29.887Z,19.40
2019-04-07T09:51:07.464Z,19.60
2019-04-07T09:53:42.638Z,19.80
2019-04-07T09:56:17.283Z,19.90
2019-04-07T09:58:51.685Z,20.10
2019-04-07T10:01:29.707Z,20.10
2019-04-07T10:03:57.941Z,20.20
2019-04-07T10:06:31.589Z,20.20
2019-04-07T10:09:00.040Z,20.30
2019-04-07T10:11:40.139Z,20.50
2019-04-07T10:14:08.265Z,20.60
2019-04-07T10:16:36.298Z,20.70
2019-04-07T10:19:07.629Z,20.80
2019-04-07T10:21:36.104Z,20.80
2019-04-07T10:24:05.290Z,20.90
2019-04-07T10:26:33.700Z,20.90
2019-04-07T10:29:01.865Z,21.00
2019-04-07T10:31:39.660Z,21.10
2019-04-07T10:34:26.048Z,21.30
2019-04-07T10:36:54.590Z,21.40
2019-04-07T10:39:39.883Z,21.50
2019-04-07T10:42:30.973Z,21.60
2019-04-07T10:45:01.924Z,21.70
2019-04-07T10:47:30.317Z,21.80
2019-04-07T10:50:04.026Z,21.90
2019-04-07T10:52:28.617Z,22.00
2019-04-07T10:54:59.508Z,22.10
2019-04-07T10:57:30.143Z,22.10
2019-04-07T11:00:13.545Z,22.20
2019-04-07T11:02:54.826Z,22.20
2019-04-07T11:05:26.935Z,22.30
2019-04-07T11:07:58.636Z,22.40
2019-04-07T11:10:37.826Z,22.60
2019-04-07T11:13:09.555Z,22.70
2019-04-07T11:15:47.713Z,22.90
2019-04-07T11:22:02.847Z,23.30
2019-04-07T11:24:48.077Z,23.40
2019-04-07T11:27:16.723Z,23.60
2019-04-07T11:29:45.013Z,23.60
2019-04-07T11:32:30.519Z,23.60
2019-04-07T11:35:11.148Z,23.70
2019-04-07T11:37:39.315Z,23.70
2019-04-07T11:40:13.579Z,23.90
2019-04-07T11:42:59.701Z,24.00
2019-04-07T11:45:54.177Z,24.10
2019-04-07T11:48:18.818Z,24.30
2019-04-07T11:51:03.459Z,24.40
2019-04-07T11:53:35.014Z,24.50
2019-04-07T11:56:12.020Z,24.50
2019-04-07T11:58:43.105Z,24.50
2019-04-07T12:04:16.303Z,24.70
2019-04-07T12:07:01.032Z,24.80
2019-04-07T12:09:35.947Z,25.20
2019-04-07T12:12:04.800Z,25.60
2019-04-07T12:14:53.139Z,25.90
2019-04-07T12:17:21.166Z,26.00
2019-04-07T12:19:49.339Z,26.20
2019-04-07T12:22:20.535Z,26.40
2019-04-07T12:24:49.121Z,26.70
2019-04-07T12:27:26.249Z,26.70
2019-04-07T12:29:58.175Z,26.70
2019-04-07T12:32:26.350Z,26.50
2019-04-07T12:35:03.993Z,26.20
2019-04-07T12:37:35.009Z,25.90
2019-04-07T12:40:20.828Z,26.00
2019-04-07T12:43:03.521Z,26.20
2019-04-07T12:45:43.848Z,26.50
2019-04-07T12:48:14.708Z,26.90
2019-04-07T12:50:59.497Z,27.20
2019-04-07T12:53:32.143Z,27.60
2019-04-07T12:56:03.656Z,27.90
2019-04-07T12:58:32.364Z,28.00
2019-04-07T13:01:14.036Z,27.60
2019-04-07T13:03:37.480Z,26.90
2019-04-07T13:06:09.497Z,26.50
2019-04-07T13:08:39.291Z,26.40
2019-04-07T13:11:09.940Z,26.00
2019-04-07T13:13:37.963Z,25.60
2019-04-07T13:16:06.271Z,25.10
2019-04-07T13:18:40.514Z,24.80
2019-04-07T13:21:12.072Z,24.90
2019-04-07T13:23:40.114Z,24.90
2019-04-07T13:26:15.385Z,24.80
2019-04-07T13:28:50.028Z,24.60
2019-04-07T13:31:19.102Z,24.60
2019-04-07T13:34:01.186Z,24.60
2019-04-07T13:36:26.857Z,24.40
2019-04-07T13:39:04.471Z,24.20
2019-04-07T13:41:42.826Z,24.10
2019-04-07T13:44:07.379Z,24.20
2019-04-07T13:46:38.950Z,24.00
2019-04-07T13:49:27.801Z,23.90
2019-04-07T13:52:11.064Z,23.60
2019-04-07T13:54:49.399Z,23.30
2019-04-07T13:57:23.220Z,23.10
2019-04-07T13:59:55.923Z,23.10
2019-04-07T14:02:39.994Z,23.00
2019-04-07T14:05:15.794Z,22.90
2019-04-07T14:08:00.379Z,22.90
2019-04-07T14:10:37.299Z,22.90
2019-04-07T14:13:17.372Z,23.00
2019-04-07T14:15:52.135Z,23.20
2019-04-07T14:18:36.720Z,23.40
2019-04-07T14:21:17.874Z,23.70
2019-04-07T14:23:48.804Z,23.60
2019-04-07T14:26:33.544Z,23.40
2019-04-07T14:29:01.987Z,23.10
2019-04-07T14:31:36.056Z,22.90
2019-04-07T14:34:21.793Z,22.70
2019-04-07T14:36:53.488Z,22.70
2019-04-07T14:39:39.077Z,22.70
2019-04-07T14:42:19.867Z,22.80
2019-04-07T14:45:01.266Z,22.80
2019-04-07T14:47:38.709Z,23.00
2019-04-07T14:50:13.386Z,23.60
2019-04-07T14:52:53.911Z,24.00
2019-04-07T14:55:39.986Z,24.50
2019-04-07T14:58:24.855Z,25.00
2019-04-07T15:00:57.212Z,25.00
2019-04-07T15:03:24.486Z,24.70
2019-04-07T15:05:56.399Z,24.50
2019-04-07T15:08:26.518Z,24.60
2019-04-07T15:10:55.167Z,24.80
2019-04-07T15:13:25.730Z,25.00
2019-04-07T15:15:52.604Z,24.80
2019-04-07T15:18:19.719Z,24.40
2019-04-07T15:20:46.245Z,24.10
2019-04-07T15:23:13.241Z,23.70
2019-04-07T15:25:42.232Z,23.40
2019-04-07T15:28:07.717Z,23.10
2019-04-07T15:30:34.213Z,22.80
2019-04-07T15:33:01.544Z,22.70
2019-04-07T15:35:29.639Z,22.70
2019-04-07T15:37:57.008Z,22.70
2019-04-07T15:40:23.556Z,22.70
2019-04-07T15:42:51.093Z,22.90
2019-04-07T15:45:20.002Z,23.30
2019-04-07T15:47:47.159Z,23.40
2019-04-07T15:50:13.880Z,23.60
2019-04-07T15:52:43.732Z,23.80
2019-04-07T15:55:08.440Z,23.80
2019-04-07T15:57:35.037Z,23.90
2019-04-07T16:00:05.073Z,23.90
2019-04-07T16:02:31.689Z,23.90
2019-04-07T16:05:00.427Z,23.80
2019-04-07T16:07:26.193Z,23.80
2019-04-07T16:09:56.299Z,23.90
2019-04-07T16:12:20.864Z,24.00
2019-04-07T16:14:47.120Z,24.10
2019-04-07T16:17:13.250Z,24.10
2019-04-07T16:19:43.107Z,24.00
2019-04-07T16:22:11.217Z,23.90
2019-04-07T16:24:35.494Z,23.70
2019-04-07T16:27:04.514Z,23.30
2019-04-07T16:29:32.963Z,23.00
2019-04-07T16:31:59.993Z,22.60
2019-04-07T16:34:26.373Z,22.40
2019-04-07T16:36:55.138Z,22.20
2019-04-07T16:39:21.086Z,22.10
2019-04-07T16:41:49.066Z,21.90
2019-04-07T16:44:15.913Z,21.80
2019-04-07T16:46:42.666Z,21.80
2019-04-07T16:49:11.508Z,21.70
2019-04-07T16:51:38.324Z,21.60
2019-04-07T16:54:08.105Z,21.60
2019-04-07T16:56:32.732Z,21.50
2019-04-07T16:59:01.239Z,21.50
2019-04-07T17:01:27.066Z,21.50
2019-04-07T17:03:53.270Z,21.40
2019-04-07T17:06:19.970Z,21.30
2019-04-07T17:08:46.590Z,21.30
2019-04-07T17:11:13.966Z,21.20
2019-04-07T17:13:42.655Z,21.20
2019-04-07T17:16:10.975Z,21.20
2019-04-07T17:18:39.068Z,21.20
2019-04-07T17:21:09.478Z,21.20
2019-04-07T17:23:36.800Z,21.10
2019-04-07T17:26:05.770Z,21.00
2019-04-07T17:28:32.408Z,20.90
2019-04-07T17:30:59.369Z,20.90
2019-04-07T17:33:27.487Z,20.80
2019-04-07T17:35:54.279Z,20.60
2019-04-07T17:38:23.842Z,20.50
2019-04-07T17:40:50.061Z,20.50
2019-04-07T17:43:37.583Z,20.40
2019-04-07T17:46:06.306Z,20.30
2019-04-07T17:48:40.175Z,20.20
2019-04-07T17:51:13.399Z,20.10
2019-04-07T17:53:50.687Z,20.10
2019-04-07T17:56:30.247Z,20.00
2019-04-07T17:59:08.730Z,19.90
2019-04-07T18:01:48.374Z,19.90
2019-04-07T18:04:28.534Z,19.80
2019-04-07T18:06:57.176Z,19.70
2019-04-07T18:09:29.819Z,19.70
2019-04-07T18:12:13.870Z,19.60
2019-04-07T18:14:57.515Z,19.50
2019-04-07T18:17:44.470Z,19.40
2019-04-07T18:20:28.362Z,19.40
2019-04-07T18:23:13.092Z,19.30
2019-04-07T18:25:51.654Z,19.20
2019-04-07T18:28:26.173Z,19.10
2019-04-07T18:31:11.793Z,19.00
2019-04-07T18:33:57.756Z,18.90
2019-04-07T18:36:40.603Z,18.80
2019-04-07T18:39:26.060Z,18.70
2019-04-07T18:42:06.583Z,18.70
2019-04-07T18:44:41.070Z,18.60
2019-04-07T18:47:37.602Z,18.50
2019-04-07T18:50:09.122Z,18.50
2019-04-07T18:52:37.852Z,18.40
2019-04-07T18:55:13.945Z,18.40
2019-04-07T18:57:46.086Z,18.30
2019-04-07T19:00:32.418Z,18.20
2019-04-07T19:03:06.322Z,18.20
2019-04-07T19:05:40.638Z,18.10
2019-04-07T19:08:11.814Z,18.10
2019-04-07T19:10:39.935Z,18.00
2019-04-07T19:13:24.541Z,18.00
2019-04-07T19:15:53.300Z,17.90
2019-04-07T19:18:22.439Z,17.80
2019-04-07T19:20:51.404Z,17.80
2019-04-07T19:23:24.240Z,17.80
2019-04-07T19:25:58.941Z,17.70
2019-04-07T19:28:37.201Z,17.60
2019-04-07T19:31:15.552Z,17.60
2019-04-07T19:33:44.895Z,17.50
2019-04-07T19:36:24.998Z,17.50
2019-04-07T19:39:02.734Z,17.50
2019-04-07T19:41:40.499Z,17.40
2019-04-07T19:44:34.881Z,17.30
2019-04-07T19:47:01.661Z,17.30
2019-04-07T19:49:43.107Z,17.30
2019-04-07T19:52:26.355Z,17.20
2019-04-07T19:54:57.181Z,17.20
2019-04-07T19:57:36.409Z,17.20
2019-04-07T20:00:07.198Z,17.10
2019-04-07T20:02:41.246Z,17.10
2019-04-07T20:05:25.371Z,17.10
2019-04-07T20:08:11.974Z,17.00
2019-04-07T20:10:40.287Z,17.00
2019-04-07T20:13:20.352Z,17.00
2019-04-07T20:16:00.524Z,17.00
2019-04-07T20:18:29.989Z,16.90
2019-04-07T20:21:16.353Z,16.90
2019-04-07T20:23:43.600Z,16.80
2019-04-07T20:26:28.608Z,16.80
2019-04-07T20:28:56.639Z,16.70
2019-04-07T20:31:41.487Z,16.60
2019-04-07T20:34:09.783Z,16.60
2019-04-07T20:36:47.945Z,16.60
2019-04-07T20:39:17.097Z,16.60
2019-04-07T20:41:48.104Z,16.50
2019-04-07T20:44:19.118Z,16.50
2019-04-07T20:46:56.832Z,16.50
2019-04-07T20:49:42.207Z,16.50
2019-04-07T20:52:10.971Z,16.40
2019-04-07T20:54:39.927Z,16.40
2019-04-07T20:57:26.195Z,16.40
2019-04-07T21:00:10.164Z,16.30
2019-04-07T21:02:38.322Z,16.30
2019-04-07T21:05:25.870Z,16.30
2019-04-07T21:07:53.459Z,16.30
2019-04-07T21:10:27.611Z,16.30
2019-04-07T21:15:55.318Z,16.20
2019-04-07T21:18:43.324Z,16.20
2019-04-07T21:21:21.980Z,16.20
2019-04-07T21:24:05.744Z,16.20
2019-04-07T21:26:33.997Z,16.20
2019-04-07T21:29:08.158Z,16.10
2019-04-07T21:31:37.688Z,16.00
2019-04-07T21:34:29.610Z,16.00
2019-04-07T21:36:59.162Z,16.00
2019-04-07T21:39:43.348Z,16.00
2019-04-07T21:42:28.314Z,16.00
2019-04-07T21:45:02.429Z,15.90
2019-04-07T21:47:29.295Z,15.90
2019-04-07T21:50:07.515Z,15.90
2019-04-07T21:52:36.479Z,15.90
2019-04-07T21:55:25.327Z,15.90
2019-04-07T21:58:05.414Z,15.80
2019-04-07T22:00:50.999Z,15.80
2019-04-07T22:03:36.260Z,15.70
2019-04-07T22:06:04.741Z,15.70
2019-04-07T22:08:36.798Z,15.70
2019-04-07T22:11:03.633Z,15.70
2019-04-07T22:13:32.850Z,15.60
2019-04-07T22:16:01.629Z,15.60
2019-04-07T22:18:26.815Z,15.60
2019-04-07T22:20:54.771Z,15.50
2019-04-07T22:23:21.596Z,15.50
2019-04-07T22:25:50.479Z,15.50
2019-04-07T22:28:16.846Z,15.50
2019-04-07T22:30:44.597Z,15.40
2019-04-07T22:33:10.863Z,15.40
2019-04-07T22:35:41.199Z,15.30
2019-04-07T22:38:05.278Z,15.30
2019-04-07T22:40:34.890Z,15.30
2019-04-07T22:42:59.672Z,15.20
2019-04-07T22:45:28.915Z,15.20
2019-04-07T22:47:53.879Z,15.20
2019-04-07T22:50:20.079Z,15.10
2019-04-07T22:52:49.058Z,15.10
2019-04-07T22:55:14.492Z,15.10
2019-04-07T22:57:41.069Z,15.10
2019-04-07T23:00:10.756Z,15.00
2019-04-07T23:02:37.018Z,15.00
2019-04-07T23:05:05.078Z,15.00
2019-04-07T23:07:31.775Z,15.00
2019-04-07T23:09:58.015Z,15.00
2019-04-07T23:12:24.477Z,14.90
2019-04-07T23:14:50.921Z,15.00
2019-04-07T23:17:17.616Z,14.90
2019-04-07T23:19:44.032Z,14.90
2019-04-07T23:22:10.256Z,14.90
2019-04-07T23:24:36.939Z,14.90
2019-04-07T23:27:04.116Z,14.90
2019-04-07T23:29:30.897Z,14.90
2019-04-07T23:31:57.631Z,14.90
2019-04-07T23:34:23.891Z,14.90
2019-04-07T23:36:50.462Z,14.80
2019-04-07T23:39:17.954Z,14.90
2019-04-07T23:41:44.309Z,14.80
2019-04-07T23:44:10.403Z,14.80
2019-04-07T23:46:36.532Z,14.80
2019-04-07T23:49:03.592Z,14.80
2019-04-07T23:51:30.681Z,14.70
2019-04-07T23:54:07.930Z,14.70
2019-04-07T23:56:36.713Z,14.80
2019-04-07T23:59:03.540Z,14.70
